createdAt,value
2023-04-04T00:02:06.255Z,2.20
2023-04-04T00:04:34.764Z,1.47
2023-04-04T00:07:03.298Z,2.53
2023-04-04T00:09:32.478Z,4.43
2023-04-04T00:12:00.999Z,3.30
2023-04-04T00:14:29.487Z,6.77
2023-04-04T00:16:57.980Z,7.87
2023-04-04T00:19:27.827Z,4.77
2023-04-04T00:21:56.528Z,10.23
2023-04-04T00:24:27.821Z,7.27
2023-04-04T00:26:56.633Z,6.90
2023-04-04T00:29:25.156Z,4.20
2023-04-04T00:31:57.921Z,9.50
2023-04-04T00:34:27.759Z,45.97
2023-04-04T00:36:56.230Z,19.83
2023-04-04T00:39:26.557Z,7.83
2023-04-04T00:41:55.270Z,8.47
2023-04-04T00:44:23.806Z,8.77
2023-04-04T00:47:11.826Z,5.47
2023-04-04T00:49:42.131Z,4.40
2023-04-04T00:52:10.726Z,4.60
2023-04-04T00:54:39.728Z,3.73
2023-04-04T00:57:10.211Z,2.60
2023-04-04T00:59:39.138Z,2.67
2023-04-04T01:02:07.800Z,1.90
2023-04-04T01:04:37.395Z,1.70
2023-04-04T01:07:07.894Z,1.40
2023-04-04T01:09:37.009Z,1.90
2023-04-04T01:12:20.774Z,2.13
2023-04-04T01:14:49.263Z,2.23
2023-04-04T01:17:18.350Z,2.80
2023-04-04T01:19:56.351Z,3.70
2023-04-04T01:22:28.627Z,2.97
2023-04-04T01:24:59.456Z,3.77
2023-04-04T01:27:29.555Z,4.37
2023-04-04T01:29:58.402Z,4.60
2023-04-04T01:32:37.528Z,4.43
2023-04-04T01:35:23.360Z,3.57
2023-04-04T01:38:19.325Z,3.40
2023-04-04T01:41:38.624Z,3.20
2023-04-04T01:44:10.756Z,2.60
2023-04-04T01:47:08.614Z,3.03
2023-04-04T01:49:37.100Z,2.80
2023-04-04T01:52:07.257Z,3.30
2023-04-04T01:54:37.161Z,3.50
2023-04-04T01:57:05.708Z,4.13
2023-04-04T01:59:36.448Z,3.80
2023-04-04T02:02:04.900Z,3.93
2023-04-04T02:04:34.063Z,3.50
2023-04-04T02:07:02.641Z,3.57
2023-04-04T02:09:31.123Z,4.20
2023-04-04T02:11:59.999Z,4.93
2023-04-04T02:14:28.777Z,3.80
2023-04-04T02:16:58.723Z,3.70
2023-04-04T02:19:27.303Z,4.30
2023-04-04T02:21:56.598Z,3.97
2023-04-04T02:24:25.157Z,3.50
2023-04-04T02:26:53.590Z,3.90
2023-04-04T02:29:22.949Z,4.60
2023-04-04T02:31:51.537Z,6.30
2023-04-04T02:34:21.430Z,6.73
2023-04-04T02:36:50.250Z,6.70
2023-04-04T02:39:18.703Z,5.53
2023-04-04T02:41:47.712Z,5.93
2023-04-04T02:44:16.160Z,5.40
2023-04-04T02:46:44.642Z,5.70
2023-04-04T02:49:13.443Z,6.10
2023-04-04T02:51:43.423Z,5.27
2023-04-04T02:54:11.866Z,5.07
2023-04-04T02:56:40.513Z,4.60
2023-04-04T02:59:09.093Z,4.80
2023-04-04T03:01:37.580Z,4.37
2023-04-04T03:04:07.145Z,6.13
2023-04-04T03:06:35.653Z,6.87
2023-04-04T03:09:05.687Z,5.73
2023-04-04T03:11:34.665Z,6.37
2023-04-04T03:14:03.367Z,5.73
2023-04-04T03:16:32.141Z,5.80
2023-04-04T03:22:00.708Z,5.10
2023-04-04T03:24:30.621Z,5.23
2023-04-04T03:27:28.376Z,5.43
2023-04-04T03:29:56.827Z,5.20
2023-04-04T03:32:25.348Z,5.40
2023-04-04T03:34:53.886Z,6.27
2023-04-04T03:37:22.998Z,5.87
2023-04-04T03:39:52.864Z,6.47
2023-04-04T03:42:21.899Z,6.47
2023-04-04T03:45:02.941Z,6.20
2023-04-04T03:47:36.508Z,6.40
2023-04-04T03:50:05.570Z,6.40
2023-04-04T03:52:38.331Z,6.40
2023-04-04T03:55:27.353Z,6.30
2023-04-04T03:57:55.964Z,6.80
2023-04-04T04:00:24.712Z,6.57
2023-04-04T04:02:53.223Z,6.30
2023-04-04T04:05:21.860Z,7.17
2023-04-04T04:07:50.376Z,6.90
2023-04-04T04:10:19.046Z,6.23
2023-04-04T04:12:49.408Z,6.53
2023-04-04T04:15:17.855Z,6.43
2023-04-04T04:17:46.379Z,7.13
2023-04-04T04:20:15.244Z,7.27
2023-04-04T04:22:47.561Z,6.63
2023-04-04T04:25:17.052Z,7.40
2023-04-04T04:27:46.103Z,6.97
2023-04-04T04:30:16.287Z,7.27
2023-04-04T04:32:45.156Z,7.03
2023-04-04T04:35:13.587Z,8.50
2023-04-04T04:37:42.065Z,8.30
2023-04-04T04:40:11.548Z,8.63
2023-04-04T04:42:46.446Z,9.07
2023-04-04T04:45:16.694Z,7.53
2023-04-04T04:47:45.176Z,9.93
2023-04-04T04:50:13.693Z,8.50
2023-04-04T04:52:42.195Z,12.90
2023-04-04T04:55:11.783Z,10.03
2023-04-04T04:57:40.485Z,10.10
2023-04-04T05:00:11.075Z,9.20
2023-04-04T05:02:40.948Z,8.80
2023-04-04T05:05:10.060Z,8.93
2023-04-04T05:07:47.390Z,10.33
2023-04-04T05:10:16.142Z,10.00
2023-04-04T05:13:18.583Z,9.37
2023-04-04T05:15:48.536Z,8.70
2023-04-04T05:18:18.345Z,8.00
2023-04-04T05:20:53.258Z,7.53
2023-04-04T05:23:21.755Z,7.47
2023-04-04T05:25:51.518Z,6.97
2023-04-04T05:28:20.237Z,7.60
2023-04-04T05:30:48.827Z,7.53
2023-04-04T05:33:18.721Z,7.77
2023-04-04T05:35:47.298Z,7.73
2023-04-04T05:38:15.907Z,8.20
2023-04-04T05:40:45.462Z,7.50
2023-04-04T05:43:14.691Z,7.50
2023-04-04T05:45:43.327Z,8.80
2023-04-04T05:48:11.964Z,7.93
2023-04-04T05:50:41.978Z,4.80
2023-04-04T05:53:16.196Z,2.10
2023-04-04T05:55:44.633Z,1.87
2023-04-04T05:58:13.720Z,1.73
2023-04-04T06:00:42.903Z,1.43
2023-04-04T06:03:19.002Z,1.20
2023-04-04T06:05:53.809Z,0.90
2023-04-04T06:08:23.512Z,1.00
2023-04-04T06:10:51.996Z,0.90
2023-04-04T06:13:23.061Z,1.07
2023-04-04T06:15:51.522Z,0.90
2023-04-04T06:18:23.001Z,1.10
2023-04-04T06:20:52.977Z,0.90
2023-04-04T06:23:21.376Z,0.80
2023-04-04T06:25:50.056Z,0.90
2023-04-04T06:28:37.032Z,1.00
2023-04-04T06:31:08.853Z,0.80
2023-04-04T06:33:37.326Z,0.80
2023-04-04T06:36:07.793Z,0.67
2023-04-04T06:38:42.457Z,0.50
2023-04-04T06:41:11.059Z,0.80
2023-04-04T06:43:39.518Z,0.60
2023-04-04T06:46:08.058Z,0.70
2023-04-04T06:48:36.646Z,0.67
2023-04-04T06:51:09.092Z,0.73
2023-04-04T06:53:37.732Z,0.60
2023-04-04T06:56:07.032Z,0.70
2023-04-04T06:58:35.568Z,0.70
2023-04-04T07:01:04.085Z,0.60
2023-04-04T07:03:32.822Z,0.60
2023-04-04T07:06:04.889Z,0.70
2023-04-04T07:08:36.928Z,0.70
2023-04-04T07:11:06.362Z,0.70
2023-04-04T07:13:35.219Z,0.73
2023-04-04T07:16:03.851Z,0.63
2023-04-04T07:18:32.409Z,0.70
2023-04-04T07:21:00.885Z,0.70
2023-04-04T07:23:29.318Z,1.27
2023-04-04T07:26:02.764Z,0.73
2023-04-04T07:28:31.352Z,0.80
2023-04-04T07:31:01.961Z,0.63
2023-04-04T07:33:30.520Z,0.70
2023-04-04T07:36:00.080Z,1.10
2023-04-04T07:38:28.832Z,0.70
2023-04-04T07:40:57.314Z,0.93
2023-04-04T07:43:27.391Z,0.90
2023-04-04T07:46:14.540Z,0.77
2023-04-04T07:48:43.099Z,0.93
2023-04-04T07:51:11.573Z,0.90
2023-04-04T07:53:40.042Z,0.97
2023-04-04T07:56:08.614Z,0.93
2023-04-04T07:58:38.472Z,0.93
2023-04-04T08:01:07.324Z,1.00
2023-04-04T08:03:35.907Z,1.07
2023-04-04T08:06:04.568Z,1.00
2023-04-04T08:08:33.023Z,1.10
2023-04-04T08:11:27.421Z,1.03
2023-04-04T08:14:27.893Z,1.00
2023-04-04T08:16:56.374Z,1.30
2023-04-04T08:19:25.104Z,0.90
2023-04-04T08:21:53.607Z,1.10
2023-04-04T08:24:22.914Z,0.90
2023-04-04T08:27:04.650Z,1.17
2023-04-04T08:29:35.551Z,1.10
2023-04-04T08:32:04.067Z,1.10
2023-04-04T08:34:32.815Z,1.00
2023-04-04T08:37:01.340Z,1.10
2023-04-04T08:39:29.757Z,1.00
2023-04-04T08:42:05.668Z,1.20
2023-04-04T08:44:38.093Z,1.00
2023-04-04T08:47:10.602Z,1.30
2023-04-04T08:49:45.073Z,1.30
2023-04-04T08:52:17.901Z,1.10
2023-04-04T08:54:47.470Z,3.60
2023-04-04T08:57:16.035Z,1.20
2023-04-04T08:59:46.022Z,1.10
2023-04-04T09:02:25.902Z,1.10
2023-04-04T09:05:05.415Z,1.20
2023-04-04T09:08:12.522Z,1.27
2023-04-04T09:10:47.939Z,1.00
2023-04-04T09:13:17.072Z,1.30
2023-04-04T09:15:50.230Z,1.03
2023-04-04T09:18:43.716Z,1.03
2023-04-04T09:21:13.519Z,1.43
2023-04-04T09:23:41.972Z,1.20
2023-04-04T09:26:11.228Z,1.10
2023-04-04T09:28:39.782Z,1.20
2023-04-04T09:31:10.708Z,1.40
2023-04-04T09:33:40.561Z,1.30
2023-04-04T09:36:12.936Z,1.20
2023-04-04T09:38:44.254Z,1.10
2023-04-04T09:41:39.584Z,1.20
2023-04-04T09:44:08.778Z,1.20
2023-04-04T09:46:39.064Z,1.20
2023-04-04T09:49:13.460Z,1.13
2023-04-04T09:51:43.423Z,1.20
2023-04-04T09:54:18.619Z,1.30
2023-04-04T09:57:27.607Z,1.07
2023-04-04T10:00:00.894Z,1.00
2023-04-04T10:02:32.531Z,1.10
2023-04-04T10:07:34.079Z,1.20
2023-04-04T10:10:06.717Z,1.10
2023-04-04T10:12:35.570Z,1.20
2023-04-04T10:15:04.890Z,1.33
2023-04-04T10:18:01.546Z,1.20
2023-04-04T10:20:33.279Z,1.30
2023-04-04T10:23:02.610Z,1.20
2023-04-04T10:25:31.608Z,1.20
2023-04-04T10:28:00.130Z,1.30
2023-04-04T10:30:28.777Z,1.20
2023-04-04T10:33:07.219Z,1.23
2023-04-04T10:35:38.079Z,1.40
2023-04-04T10:38:08.231Z,1.23
2023-04-04T10:40:39.985Z,1.90
2023-04-04T10:43:09.030Z,1.70
2023-04-04T10:45:40.192Z,1.50
2023-04-04T10:48:10.830Z,1.40
2023-04-04T10:50:40.359Z,1.40
2023-04-04T10:53:10.598Z,1.60
2023-04-04T10:55:41.430Z,1.70
2023-04-04T10:58:12.073Z,1.70
2023-04-04T11:00:52.947Z,2.10
2023-04-04T11:03:24.427Z,2.20
2023-04-04T11:06:18.352Z,1.97
2023-04-04T11:08:57.193Z,1.90
2023-04-04T11:11:28.234Z,1.90
2023-04-04T11:14:01.932Z,1.90
2023-04-04T11:16:47.972Z,2.30
2023-04-04T11:19:18.935Z,2.07
2023-04-04T11:22:13.075Z,1.73
2023-04-04T11:24:44.659Z,2.07
2023-04-04T11:27:13.817Z,3.37
2023-04-04T11:29:53.927Z,2.30
2023-04-04T11:32:50.070Z,2.10
2023-04-04T11:35:23.089Z,1.80
2023-04-04T11:38:03.012Z,2.47
2023-04-04T11:40:43.086Z,2.20
2023-04-04T11:44:04.294Z,2.10
2023-04-04T11:46:34.030Z,2.20
2023-04-04T11:49:03.475Z,2.40
2023-04-04T11:51:34.007Z,2.60
2023-04-04T11:54:02.491Z,2.20
2023-04-04T11:56:37.332Z,2.50
2023-04-04T11:59:11.353Z,2.33
2023-04-04T12:01:40.794Z,2.50
2023-04-04T12:04:11.074Z,2.80
2023-04-04T12:06:41.383Z,2.57
2023-04-04T12:09:13.139Z,2.50
2023-04-04T12:11:41.905Z,2.97
2023-04-04T12:14:18.486Z,2.70
2023-04-04T12:16:49.818Z,2.60
2023-04-04T12:19:19.411Z,2.80
2023-04-04T12:21:50.211Z,3.20
2023-04-04T12:24:19.069Z,3.00
2023-04-04T12:26:51.561Z,2.73
2023-04-04T12:29:24.106Z,2.83
2023-04-04T12:31:54.667Z,2.73
2023-04-04T12:34:25.933Z,2.90
2023-04-04T12:36:58.594Z,2.67
2023-04-04T12:39:28.837Z,2.80
2023-04-04T12:42:01.429Z,3.30
2023-04-04T12:44:33.173Z,3.07
2023-04-04T12:47:04.854Z,3.10
2023-04-04T12:49:40.334Z,3.40
2023-04-04T12:52:20.559Z,3.90
2023-04-04T12:54:59.208Z,3.40
2023-04-04T12:57:37.066Z,3.30
2023-04-04T13:02:57.706Z,3.63
2023-04-04T13:05:27.337Z,3.63
2023-04-04T13:08:08.241Z,3.50
2023-04-04T13:11:04.388Z,3.60
2023-04-04T13:13:35.467Z,3.40
2023-04-04T13:16:06.711Z,3.90
2023-04-04T13:18:38.635Z,3.93
2023-04-04T13:21:08.675Z,4.20
2023-04-04T13:23:40.960Z,3.80
2023-04-04T13:26:11.400Z,4.23
2023-04-04T13:28:40.387Z,3.83
2023-04-04T13:31:11.797Z,3.77
2023-04-04T13:33:40.581Z,3.80
2023-04-04T13:36:09.281Z,4.23
2023-04-04T13:38:39.193Z,4.40
2023-04-04T13:41:07.728Z,4.53
2023-04-04T13:43:36.169Z,4.50
2023-04-04T13:46:04.684Z,4.10
2023-04-04T13:48:33.156Z,4.53
2023-04-04T13:51:01.643Z,4.40
2023-04-04T13:53:30.271Z,4.27
2023-04-04T13:56:16.788Z,4.57
2023-04-04T13:58:47.130Z,5.10
2023-04-04T14:01:16.018Z,4.37
2023-04-04T14:03:44.681Z,5.00
2023-04-04T14:06:13.542Z,4.53
2023-04-04T14:08:42.005Z,5.00
2023-04-04T14:11:11.866Z,4.80
2023-04-04T14:13:40.361Z,4.63
2023-04-04T14:16:09.337Z,4.30
2023-04-04T14:18:37.992Z,4.87
2023-04-04T14:21:07.360Z,4.87
2023-04-04T14:23:35.905Z,4.57
2023-04-04T14:26:04.544Z,4.93
2023-04-04T14:28:34.569Z,5.33
2023-04-04T14:31:03.071Z,4.73
2023-04-04T14:33:31.535Z,5.30
2023-04-04T14:35:59.975Z,5.60
2023-04-04T14:38:28.434Z,5.30
2023-04-04T14:40:56.982Z,5.37
2023-04-04T14:43:25.397Z,5.47
2023-04-04T14:45:55.560Z,5.13
2023-04-04T14:48:24.048Z,5.43
2023-04-04T14:50:54.026Z,5.50
2023-04-04T14:53:22.862Z,5.60
2023-04-04T14:55:52.772Z,5.27
2023-04-04T14:58:21.282Z,5.17
2023-04-04T15:00:50.378Z,5.00
2023-04-04T15:03:20.264Z,5.00
2023-04-04T15:08:56.003Z,5.10
2023-04-04T15:11:24.526Z,5.90
2023-04-04T15:13:52.951Z,5.47
2023-04-04T15:16:21.626Z,5.57
2023-04-04T15:18:51.595Z,5.17
2023-04-04T15:21:20.025Z,5.53
2023-04-04T15:23:48.567Z,5.83
2023-04-04T15:26:17.049Z,6.10
2023-04-04T15:28:45.520Z,5.13
2023-04-04T15:31:39.224Z,5.60
2023-04-04T15:34:09.567Z,6.60
2023-04-04T15:36:38.095Z,6.23
2023-04-04T15:39:06.689Z,5.77
2023-04-04T15:41:35.123Z,6.00
2023-04-04T15:44:03.545Z,6.57
2023-04-04T15:46:32.547Z,6.43
2023-04-04T15:49:01.166Z,6.37
2023-04-04T15:51:32.348Z,6.63
2023-04-04T15:54:00.798Z,6.73
2023-04-04T15:56:29.260Z,6.53
2023-04-04T15:58:59.420Z,6.50
2023-04-04T16:01:28.482Z,6.90
2023-04-04T16:03:56.992Z,7.00
2023-04-04T16:06:25.863Z,7.53
2023-04-04T16:08:55.672Z,7.07
2023-04-04T16:11:25.558Z,7.13
2023-04-04T16:13:53.998Z,6.70
2023-04-04T16:16:31.712Z,7.00
2023-04-04T16:19:00.373Z,7.30
2023-04-04T16:21:28.877Z,7.37
2023-04-04T16:23:58.756Z,7.10
2023-04-04T16:26:27.264Z,8.23
2023-04-04T16:28:55.812Z,7.17
2023-04-04T16:31:24.790Z,7.53
2023-04-04T16:33:53.454Z,8.10
2023-04-04T16:36:21.940Z,8.03
2023-04-04T16:38:50.397Z,8.10
2023-04-04T16:41:20.212Z,7.80
2023-04-04T16:43:52.594Z,8.13
2023-04-04T16:46:21.373Z,7.77
2023-04-04T16:48:49.907Z,7.50
2023-04-04T16:51:18.367Z,8.17
2023-04-04T16:54:13.134Z,7.97
2023-04-04T16:56:43.115Z,7.77
2023-04-04T16:59:11.770Z,8.50
2023-04-04T17:01:40.398Z,7.50
2023-04-04T17:04:09.037Z,7.77
2023-04-04T17:06:37.460Z,7.87
2023-04-04T17:09:06.093Z,8.50
2023-04-04T17:11:34.605Z,7.50
2023-04-04T17:14:04.414Z,8.37
2023-04-04T17:16:33.156Z,8.67
2023-04-04T17:19:01.577Z,7.53
2023-04-04T17:21:30.155Z,7.17
2023-04-04T17:23:58.651Z,7.90
2023-04-04T17:26:27.647Z,8.07
2023-04-04T17:28:56.171Z,7.70
2023-04-04T17:31:26.073Z,7.23
2023-04-04T17:33:54.536Z,7.40
2023-04-04T17:36:23.013Z,7.97
2023-04-04T17:38:52.057Z,9.83
2023-04-04T17:41:20.600Z,8.70
2023-04-04T17:43:49.062Z,8.70
2023-04-04T17:46:17.917Z,7.87
2023-04-04T17:48:48.125Z,8.63
2023-04-04T17:51:16.587Z,8.10
2023-04-04T17:53:45.229Z,7.07
2023-04-04T17:56:14.032Z,7.83
2023-04-04T17:58:43.284Z,7.97
2023-04-04T18:01:12.449Z,8.23
2023-04-04T18:03:41.311Z,7.03
2023-04-04T18:06:11.277Z,7.77
2023-04-04T18:08:39.717Z,7.60
2023-04-04T18:11:08.740Z,8.37
2023-04-04T18:13:37.198Z,7.47
2023-04-04T18:16:07.450Z,7.70
2023-04-04T18:18:37.458Z,8.70
2023-04-04T18:21:06.673Z,7.93
2023-04-04T18:23:36.497Z,8.37
2023-04-04T18:26:30.095Z,8.30
2023-04-04T18:28:58.788Z,7.50
2023-04-04T18:31:27.876Z,8.17
2023-04-04T18:33:56.821Z,8.40
2023-04-04T18:36:25.369Z,7.70
2023-04-04T18:38:55.232Z,8.53
2023-04-04T18:41:23.744Z,7.43
2023-04-04T18:43:52.317Z,7.37
2023-04-04T18:46:20.830Z,7.60
2023-04-04T18:48:49.273Z,7.53
2023-04-04T18:51:17.822Z,8.10
2023-04-04T18:53:46.434Z,8.00
2023-04-04T18:56:16.485Z,8.20
2023-04-04T18:58:45.041Z,7.67
2023-04-04T19:01:15.907Z,7.30
2023-04-04T19:03:47.544Z,7.77
2023-04-04T19:06:16.464Z,7.60
2023-04-04T19:09:11.230Z,8.07
2023-04-04T19:11:43.132Z,8.53
2023-04-04T19:14:11.560Z,8.23
2023-04-04T19:16:41.205Z,8.03
2023-04-04T19:19:09.948Z,7.73
2023-04-04T19:21:38.438Z,8.97
2023-04-04T19:24:07.868Z,7.83
2023-04-04T19:26:36.484Z,8.10
2023-04-04T19:29:06.998Z,8.23
2023-04-04T19:31:45.024Z,8.63
2023-04-04T19:34:15.167Z,8.73
2023-04-04T19:36:43.734Z,8.80
2023-04-04T19:39:12.575Z,7.90
2023-04-04T19:41:42.301Z,8.10
2023-04-04T19:44:21.433Z,8.60
2023-04-04T19:46:50.468Z,8.00
2023-04-04T19:49:19.309Z,7.90
2023-04-04T19:51:53.573Z,8.47
2023-04-04T19:54:28.104Z,7.40
2023-04-04T19:57:01.658Z,8.33
2023-04-04T20:00:03.894Z,8.80
2023-04-04T20:03:29.199Z,8.17
2023-04-04T20:06:10.726Z,7.63
2023-04-04T20:08:46.662Z,7.93
2023-04-04T20:11:16.876Z,7.87
2023-04-04T20:13:46.598Z,7.70
2023-04-04T20:16:17.819Z,7.83
2023-04-04T20:18:47.553Z,7.10
2023-04-04T20:21:18.658Z,8.23
2023-04-04T20:23:53.461Z,6.57
2023-04-04T20:26:55.491Z,7.70
2023-04-04T20:29:27.650Z,7.70
2023-04-04T20:31:59.548Z,7.27
2023-04-04T20:34:41.870Z,7.30
2023-04-04T20:37:13.621Z,7.80
2023-04-04T20:39:47.662Z,7.47
2023-04-04T20:42:38.229Z,7.70
2023-04-04T20:45:46.800Z,6.93
2023-04-04T20:48:40.537Z,7.20
2023-04-04T20:51:31.417Z,7.60
2023-04-04T20:54:01.998Z,7.33
2023-04-04T20:56:55.507Z,7.70
2023-04-04T20:59:37.421Z,8.03
2023-04-04T21:02:39.981Z,6.97
2023-04-04T21:05:27.825Z,6.90
2023-04-04T21:07:56.675Z,7.67
2023-04-04T21:10:49.142Z,7.63
2023-04-04T21:13:19.605Z,8.70
2023-04-04T21:15:50.016Z,7.70
2023-04-04T21:18:27.833Z,7.67
2023-04-04T21:21:19.746Z,6.47
2023-04-04T21:23:52.594Z,7.13
2023-04-04T21:26:31.925Z,7.37
2023-04-04T21:29:03.142Z,7.20
2023-04-04T21:31:38.354Z,6.53
2023-04-04T21:34:38.822Z,7.00
2023-04-04T21:37:17.584Z,7.53
2023-04-04T21:39:49.888Z,7.67
2023-04-04T21:42:19.504Z,7.43
2023-04-04T21:44:47.967Z,7.50
2023-04-04T21:47:16.536Z,7.87
2023-04-04T21:49:44.975Z,7.50
2023-04-04T21:52:49.641Z,8.20
2023-04-04T21:55:19.844Z,8.07
2023-04-04T21:57:49.965Z,8.60
2023-04-04T22:00:19.018Z,8.60
2023-04-04T22:02:47.482Z,8.83
2023-04-04T22:05:41.268Z,8.90
2023-04-04T22:08:11.845Z,8.27
2023-04-04T22:10:47.451Z,8.07
2023-04-04T22:13:17.132Z,9.43
2023-04-04T22:15:48.458Z,8.67
2023-04-04T22:18:18.069Z,8.97
2023-04-04T22:20:54.741Z,7.97
2023-04-04T22:23:35.537Z,8.20
2023-04-04T22:26:06.258Z,7.67
2023-04-04T22:28:35.886Z,8.77
2023-04-04T22:31:29.596Z,8.60
2023-04-04T22:33:58.197Z,8.60
2023-04-04T22:36:26.842Z,8.77
2023-04-04T22:38:58.150Z,8.00
2023-04-04T22:41:28.831Z,7.57
2023-04-04T22:43:58.046Z,8.10
2023-04-04T22:46:29.311Z,8.23
2023-04-04T22:49:06.619Z,8.90
2023-04-04T22:51:45.638Z,7.93
2023-04-04T22:54:17.316Z,8.07
2023-04-04T22:56:48.606Z,9.00
2023-04-04T22:59:17.125Z,7.90
2023-04-04T23:01:45.618Z,8.17
2023-04-04T23:04:21.556Z,7.97
2023-04-04T23:07:15.200Z,8.93
2023-04-04T23:09:45.054Z,8.97
2023-04-04T23:12:13.448Z,9.13
2023-04-04T23:14:41.925Z,9.03
2023-04-04T23:17:10.853Z,9.00
2023-04-04T23:19:39.332Z,8.70
2023-04-04T23:22:07.870Z,8.10
2023-04-04T23:24:38.742Z,8.53
2023-04-04T23:27:08.851Z,8.40
2023-04-04T23:29:42.644Z,8.03
2023-04-04T23:32:11.667Z,8.53
2023-04-04T23:34:40.144Z,7.83
2023-04-04T23:37:08.616Z,8.17
2023-04-04T23:40:02.075Z,7.90
2023-04-04T23:42:50.767Z,8.20
2023-04-04T23:45:19.219Z,8.20
2023-04-04T23:47:47.773Z,7.47
2023-04-04T23:50:17.205Z,7.27
2023-04-04T23:52:45.779Z,7.93
2023-04-04T23:55:14.444Z,7.63
2023-04-04T23:57:43.699Z,7.23
